Time;durP1;ratioP1;P1;durP2;ratioP2;P2;SDS_P1;SDS_P2;PMS_P1;PMS_P2;Temp;Humidity;BMP_temperature;BMP_pressure;BME280_temperature;BME280_humidity;BME280_pressure;Samples;Min_cycle;Max_cycle;Signal;HPM_P1;HPM_P2
2023/10/26 00:02:31;;;;;;;24.02;12.90;;;9.70;92.50;;;;;;6220280;28;20413;-82
2023/10/26 00:05:32;;;;;;;24.05;11.40;;;9.70;92.50;;;;;;6225412;28;20524;-81
2023/10/26 00:08:34;;;;;;;20.70;10.63;;;9.70;92.60;;;;;;6242743;28;20053;-81
2023/10/26 00:11:36;;;;;;;23.25;10.85;;;9.80;92.60;;;;;;6220435;28;20054;-82
2023/10/26 00:14:39;;;;;;;24.58;9.82;;;9.90;92.70;;;;;;6224048;28;20056;-83
2023/10/26 00:17:41;;;;;;;20.15;9.23;;;9.90;92.50;;;;;;6243283;28;20645;-83
2023/10/26 00:20:45;;;;;;;22.15;11.90;;;9.90;92.70;;;;;;6220084;28;20144;-83
2023/10/26 00:23:46;;;;;;;24.52;11.55;;;10.00;92.40;;;;;;6235203;28;20449;-82
2023/10/26 00:26:48;;;;;;;22.15;10.80;;;10.10;92.40;;;;;;6241689;28;20459;-83
2023/10/26 00:29:50;;;;;;;21.73;9.13;;;10.10;92.40;;;;;;6219386;28;20053;-84
2023/10/26 00:32:51;;;;;;;19.85;8.05;;;10.10;92.40;;;;;;6241713;28;20057;-84
2023/10/26 00:35:54;;;;;;;21.10;9.07;;;10.30;92.30;;;;;;6241566;28;20136;-84
2023/10/26 00:38:55;;;;;;;19.52;9.35;;;10.20;92.10;;;;;;6218336;28;20056;-84
2023/10/26 00:41:57;;;;;;;19.25;9.15;;;10.20;92.10;;;;;;6221131;28;20513;-84
2023/10/26 00:44:59;;;;;;;18.48;9.10;;;10.10;91.90;;;;;;6239102;28;20110;-83
2023/10/26 00:48:00;;;;;;;18.92;7.75;;;10.20;92.20;;;;;;6218541;28;20053;-81
2023/10/26 00:51:02;;;;;;;13.88;7.45;;;10.20;92.10;;;;;;6197891;28;20469;-82
2023/10/26 00:54:04;;;;;;;19.58;8.23;;;10.20;91.90;;;;;;6233334;28;20056;-82
2023/10/26 00:57:06;;;;;;;20.27;7.93;;;10.10;92.20;;;;;;6243425;28;20050;-82
2023/10/26 01:00:09;;;;;;;20.52;8.75;;;10.20;92.10;;;;;;6214573;28;20483;-81
2023/10/26 01:03:11;;;;;;;17.98;8.00;;;10.20;92.10;;;;;;6243080;28;20050;-82
2023/10/26 01:06:13;;;;;;;18.67;7.38;;;10.30;92.10;;;;;;6219415;28;20058;-83
2023/10/26 01:09:15;;;;;;;17.17;7.65;;;10.30;92.00;;;;;;6233399;28;20054;-83
2023/10/26 01:12:17;;;;;;;16.02;7.28;;;10.30;92.00;;;;;;6241982;28;20096;-83
2023/10/26 01:15:19;;;;;;;15.55;7.07;;;10.40;92.00;;;;;;6219134;28;20061;-83
2023/10/26 01:18:20;;;;;;;18.05;7.70;;;10.40;92.00;;;;;;6243698;28;20080;-83
2023/10/26 01:21:22;;;;;;;13.63;6.85;;;10.50;91.90;;;;;;6222335;28;20065;-83
2023/10/26 01:24:24;;;;;;;14.10;7.38;;;10.50;91.80;;;;;;6247474;28;20064;-83
2023/10/26 01:27:25;;;;;;;15.45;6.85;;;10.50;91.90;;;;;;6204719;28;20064;-83
2023/10/26 01:30:27;;;;;;;15.85;6.90;;;10.50;91.60;;;;;;6243143;28;20492;-82
2023/10/26 01:33:29;;;;;;;15.07;7.03;;;10.60;91.60;;;;;;6223948;28;20061;-83
2023/10/26 01:36:30;;;;;;;15.00;6.72;;;10.60;91.50;;;;;;6247460;28;20060;-82
2023/10/26 01:39:32;;;;;;;13.13;6.40;;;10.60;91.50;;;;;;6201603;28;20058;-83
2023/10/26 01:42:34;;;;;;;18.00;7.03;;;10.60;91.30;;;;;;6246720;28;20057;-82
2023/10/26 01:45:35;;;;;;;16.27;7.18;;;10.60;91.30;;;;;;6216433;28;20054;-83
2023/10/26 01:48:37;;;;;;;14.43;6.70;;;10.60;91.40;;;;;;6246010;28;20053;-82
2023/10/26 01:51:39;;;;;;;15.15;6.40;;;10.60;91.50;;;;;;6222526;28;20061;-84
2023/10/26 01:54:40;;;;;;;14.43;6.63;;;10.60;91.50;;;;;;6232507;28;20050;-83
2023/10/26 01:57:42;;;;;;;15.15;6.75;;;10.60;91.70;;;;;;6225535;28;20069;-83
2023/10/26 02:00:44;;;;;;;13.98;5.93;;;10.60;91.60;;;;;;6222825;28;20497;-84
2023/10/26 02:03:45;;;;;;;19.48;7.22;;;10.60;91.70;;;;;;6245413;28;20543;-84
2023/10/26 02:06:47;;;;;;;13.18;6.78;;;10.60;91.80;;;;;;6205165;28;20785;-83
2023/10/26 02:09:49;;;;;;;12.85;6.30;;;10.70;91.70;;;;;;6246276;28;20053;-83
2023/10/26 02:12:51;;;;;;;14.57;6.20;;;10.70;91.70;;;;;;6223695;28;20052;-83
2023/10/26 02:15:52;;;;;;;13.32;6.32;;;10.70;91.40;;;;;;6240495;28;20057;-83
2023/10/26 02:18:54;;;;;;;13.40;6.50;;;10.70;91.70;;;;;;6222922;28;20073;-83
2023/10/26 02:21:55;;;;;;;16.60;6.38;;;10.70;91.40;;;;;;6246749;28;20100;-84
2023/10/26 02:24:57;;;;;;;14.52;6.35;;;10.70;91.50;;;;;;6221933;28;20061;-83
2023/10/26 02:27:59;;;;;;;12.43;5.78;;;10.60;91.60;;;;;;6225836;28;20576;-83
2023/10/26 02:31:00;;;;;;;13.35;6.65;;;10.60;91.70;;;;;;6245039;28;20144;-83
2023/10/26 02:34:02;;;;;;;14.73;7.07;;;10.60;91.70;;;;;;6200703;28;20058;-82
2023/10/26 02:37:04;;;;;;;16.05;6.95;;;10.70;91.80;;;;;;6244962;28;20065;-83
2023/10/26 02:40:05;;;;;;;12.27;7.35;;;10.60;91.40;;;;;;6222223;28;20072;-83
2023/10/26 02:43:07;;;;;;;18.42;8.40;;;10.60;91.50;;;;;;6241591;28;20131;-83
2023/10/26 02:46:09;;;;;;;17.13;7.72;;;10.50;91.70;;;;;;6219338;28;20050;-83
2023/10/26 02:49:10;;;;;;;12.52;7.28;;;10.60;91.70;;;;;;6215481;28;20507;-83
2023/10/26 02:52:12;;;;;;;14.88;7.38;;;10.60;91.90;;;;;;6245467;28;20049;-84
2023/10/26 02:55:13;;;;;;;17.00;7.45;;;10.50;91.70;;;;;;6248091;28;20160;-84
2023/10/26 02:58:18;;;;;;;14.05;7.38;;;10.60;91.80;;;;;;6224882;28;20053;-84
2023/10/26 03:01:20;;;;;;;14.98;7.90;;;10.60;91.90;;;;;;6246597;28;20057;-83
2023/10/26 03:04:22;;;;;;;17.10;8.10;;;10.50;92.10;;;;;;6204402;28;20058;-83
2023/10/26 03:07:23;;;;;;;12.70;6.72;;;10.50;92.20;;;;;;6220651;28;20072;-81
2023/10/26 03:10:25;;;;;;;14.73;7.32;;;10.50;92.40;;;;;;6243583;28;20501;-82
2023/10/26 03:13:27;;;;;;;13.00;7.70;;;10.50;92.40;;;;;;6222840;28;20064;-82
2023/10/26 03:16:29;;;;;;;14.32;7.45;;;10.50;92.40;;;;;;6244381;28;20527;-83
2023/10/26 03:19:30;;;;;;;15.43;7.78;;;10.50;92.40;;;;;;6220343;28;20136;-82
2023/10/26 03:22:32;;;;;;;15.02;7.50;;;10.60;92.60;;;;;;6211622;28;20053;-83
2023/10/26 03:25:34;;;;;;;15.00;7.63;;;10.60;92.90;;;;;;6243406;28;20511;-83
2023/10/26 03:28:36;;;;;;;15.77;7.20;;;10.70;93.00;;;;;;6226931;28;20053;-82
2023/10/26 03:31:38;;;;;;;14.68;7.25;;;10.70;93.30;;;;;;6231953;28;20053;-82
2023/10/26 03:34:40;;;;;;;14.45;6.82;;;10.70;93.60;;;;;;6243183;28;20049;-82
2023/10/26 03:37:42;;;;;;;12.65;6.47;;;10.80;93.60;;;;;;6220999;28;20137;-82
2023/10/26 03:40:43;;;;;;;14.00;7.03;;;10.80;93.60;;;;;;6224787;28;20133;-82
2023/10/26 03:47:12;;;;;;;13.20;5.93;;;10.80;93.60;;;;;;6143948;29;20439;-78
2023/10/26 03:50:14;;;;;;;10.73;6.03;;;10.90;93.60;;;;;;6186020;28;20063;-79
2023/10/26 03:53:15;;;;;;;11.50;6.20;;;10.90;93.60;;;;;;6146462;28;20504;-78
2023/10/26 03:56:17;;;;;;;10.55;5.25;;;10.90;93.60;;;;;;6170960;28;20097;-77
2023/10/26 03:59:18;;;;;;;12.27;6.20;;;10.90;93.60;;;;;;6154759;28;20062;-76
2023/10/26 04:02:20;;;;;;;9.43;4.55;;;11.00;93.70;;;;;;6171111;28;20051;-77
2023/10/26 04:05:22;;;;;;;6.88;3.55;;;11.00;93.90;;;;;;6146008;28;20458;-77
2023/10/26 04:08:23;;;;;;;6.30;3.00;;;11.10;94.00;;;;;;6152563;28;20054;-77
2023/10/26 04:11:25;;;;;;;5.68;2.83;;;11.20;94.20;;;;;;6170195;28;20057;-76
2023/10/26 04:14:27;;;;;;;6.47;2.95;;;11.20;94.20;;;;;;6158048;28;20129;-77
2023/10/26 04:17:28;;;;;;;8.07;2.80;;;11.20;94.30;;;;;;6147190;28;20055;-78
2023/10/26 04:20:30;;;;;;;8.77;2.30;;;11.30;94.30;;;;;;6172511;28;20145;-77
2023/10/26 04:23:31;;;;;;;4.97;2.75;;;11.30;94.30;;;;;;6184893;28;20058;-77
2023/10/26 04:26:33;;;;;;;6.65;2.10;;;11.30;94.30;;;;;;6147304;28;20056;-77
2023/10/26 04:29:35;;;;;;;3.58;1.88;;;11.40;94.40;;;;;;6159165;28;20058;-77
2023/10/26 04:32:36;;;;;;;4.63;1.92;;;11.40;94.30;;;;;;6147100;28;20059;-77
2023/10/26 04:35:38;;;;;;;8.85;3.13;;;11.30;94.30;;;;;;6146678;28;20055;-77
2023/10/26 04:38:39;;;;;;;5.35;2.38;;;11.30;94.30;;;;;;6169876;28;20551;-76
2023/10/26 04:41:41;;;;;;;5.35;3.00;;;11.30;94.30;;;;;;6144104;28;20046;-78
2023/10/26 04:44:43;;;;;;;6.85;2.90;;;11.30;94.30;;;;;;6154395;28;20510;-77
2023/10/26 04:47:44;;;;;;;6.13;2.83;;;11.30;94.40;;;;;;6170886;28;20573;-76
2023/10/26 04:50:46;;;;;;;5.43;2.30;;;11.40;94.40;;;;;;6146550;28;20074;-78
2023/10/26 04:53:48;;;;;;;6.65;2.40;;;11.40;94.30;;;;;;6173315;28;20051;-78
2023/10/26 04:56:51;;;;;;;5.72;2.40;;;11.30;94.40;;;;;;6154793;28;20418;-78
2023/10/26 04:59:53;;;;;;;5.82;2.70;;;11.30;94.40;;;;;;6174153;28;20051;-78
2023/10/26 05:02:54;;;;;;;4.80;2.42;;;11.30;94.30;;;;;;6177836;28;20054;-77
2023/10/26 05:05:56;;;;;;;6.90;2.67;;;11.30;94.40;;;;;;6153431;28;20047;-78
2023/10/26 05:08:58;;;;;;;5.63;2.47;;;11.30;94.60;;;;;;6177833;28;20082;-78
2023/10/26 05:12:01;;;;;;;5.53;2.50;;;11.30;94.40;;;;;;6153966;28;20078;-76
2023/10/26 05:15:02;;;;;;;4.72;2.67;;;11.30;94.50;;;;;;6161589;28;20522;-77
2023/10/26 05:18:06;;;;;;;6.35;2.42;;;11.30;94.50;;;;;;6178111;28;20920;-77
2023/10/26 05:21:08;;;;;;;4.60;2.45;;;11.30;94.50;;;;;;6154345;28;20058;-77
2023/10/26 05:24:10;;;;;;;6.13;2.67;;;11.30;94.50;;;;;;6158037;28;20557;-77
2023/10/26 05:27:11;;;;;;;7.90;2.80;;;11.40;94.50;;;;;;6177646;28;20047;-77
2023/10/26 05:30:13;;;;;;;6.65;2.63;;;11.30;94.50;;;;;;6148915;28;20061;-77
2023/10/26 05:33:15;;;;;;;10.55;2.90;;;11.30;94.50;;;;;;6155443;28;20047;-77
2023/10/26 05:36:17;;;;;;;6.70;2.97;;;11.40;94.50;;;;;;6173848;28;20074;-78
2023/10/26 05:39:19;;;;;;;5.93;2.42;;;11.30;94.60;;;;;;6160535;28;20047;-79
2023/10/26 05:42:21;;;;;;;6.60;3.33;;;11.40;94.60;;;;;;6152348;28;20059;-77
2023/10/26 05:45:22;;;;;;;7.05;3.58;;;11.30;94.60;;;;;;6162561;28;20574;-77
2023/10/26 05:48:24;;;;;;;6.15;2.92;;;11.40;94.60;;;;;;6177736;28;20055;-77
2023/10/26 05:51:26;;;;;;;5.82;2.85;;;11.40;94.60;;;;;;6154322;28;20051;-78
2023/10/26 05:54:27;;;;;;;7.10;3.28;;;11.40;94.70;;;;;;6176415;28;20050;-77
2023/10/26 05:57:29;;;;;;;8.30;2.75;;;11.40;94.60;;;;;;6154465;28;20060;-77
2023/10/26 06:00:31;;;;;;;6.10;3.30;;;11.50;94.70;;;;;;6175959;28;20058;-78
2023/10/26 06:03:33;;;;;;;5.22;2.70;;;11.40;94.70;;;;;;6129968;29;20063;-78
2023/10/26 06:06:35;;;;;;;5.63;3.17;;;11.40;94.70;;;;;;6172355;28;20094;-78
2023/10/26 06:09:37;;;;;;;6.35;3.55;;;11.50;94.70;;;;;;6150326;28;20141;-78
2023/10/26 06:12:39;;;;;;;7.38;3.33;;;11.40;94.70;;;;;;6171058;28;20522;-79
2023/10/26 06:15:40;;;;;;;5.53;3.67;;;11.40;94.70;;;;;;6144168;28;20055;-78
2023/10/26 06:18:42;;;;;;;6.10;3.63;;;11.50;94.80;;;;;;6126033;29;20060;-77
2023/10/26 06:21:44;;;;;;;6.05;3.55;;;11.50;94.80;;;;;;6172905;28;20417;-78
2023/10/26 06:24:46;;;;;;;6.72;3.55;;;11.50;94.80;;;;;;6150609;28;20137;-78
2023/10/26 06:27:47;;;;;;;5.47;3.17;;;11.50;95.00;;;;;;6171304;28;20050;-78
2023/10/26 06:30:49;;;;;;;7.32;2.95;;;11.50;94.80;;;;;;6149765;28;20051;-79
2023/10/26 06:33:51;;;;;;;5.00;2.67;;;11.50;94.80;;;;;;6149466;28;20546;-78
2023/10/26 06:36:53;;;;;;;4.20;2.10;;;11.50;94.80;;;;;;6172950;28;20054;-78
2023/10/26 06:39:54;;;;;;;4.32;1.95;;;11.50;94.80;;;;;;6147866;28;20051;-78
2023/10/26 06:42:56;;;;;;;4.82;1.67;;;11.60;94.80;;;;;;6151558;28;20065;-77
2023/10/26 06:45:58;;;;;;;5.30;1.50;;;11.60;94.80;;;;;;6156481;28;20097;-76
2023/10/26 06:48:59;;;;;;;5.10;1.50;;;11.60;94.80;;;;;;6171284;28;20521;-78
2023/10/26 06:52:02;;;;;;;3.70;1.20;;;11.50;94.80;;;;;;6149487;28;20189;-79
2023/10/26 06:55:03;;;;;;;5.03;1.63;;;11.50;94.80;;;;;;6172904;28;20050;-79
2023/10/26 06:58:20;;;;;;;2.33;1.10;;;11.60;94.80;;;;;;6153717;28;20101;-79
2023/10/26 07:01:21;;;;;;;2.67;1.20;;;11.50;94.60;;;;;;6171802;28;20054;-78
2023/10/26 07:04:23;;;;;;;4.28;1.08;;;11.50;94.70;;;;;;6149249;28;20055;-79
2023/10/26 07:07:25;;;;;;;4.95;1.30;;;11.50;94.60;;;;;;6172386;28;20059;-79
2023/10/26 07:10:27;;;;;;;4.40;1.00;;;11.50;94.40;;;;;;6148689;28;20408;-79
2023/10/26 07:13:29;;;;;;;4.97;1.27;;;11.50;94.40;;;;;;6161871;28;20514;-78
2023/10/26 07:16:32;;;;;;;3.85;1.30;;;11.50;94.40;;;;;;6148199;28;20141;-79
2023/10/26 07:19:33;;;;;;;4.53;1.50;;;11.50;94.40;;;;;;6172068;28;20117;-79
2023/10/26 07:22:35;;;;;;;3.58;1.40;;;11.50;94.40;;;;;;6148491;28;20055;-79
2023/10/26 07:25:37;;;;;;;4.38;1.30;;;11.60;94.40;;;;;;6171905;28;20050;-78
2023/10/26 07:28:38;;;;;;;3.67;1.20;;;11.50;94.40;;;;;;6155351;28;20499;-78
2023/10/26 07:31:40;;;;;;;4.20;1.38;;;11.60;94.40;;;;;;6148417;28;20058;-77
2023/10/26 07:34:42;;;;;;;4.68;1.40;;;11.70;94.50;;;;;;6171313;28;20059;-77
2023/10/26 07:37:44;;;;;;;3.00;1.10;;;11.90;94.60;;;;;;6147975;28;20051;-78
2023/10/26 07:41:00;;;;;;;4.80;1.20;;;11.90;94.20;;;;;;6146185;28;20055;-78
2023/10/26 07:44:02;;;;;;;4.05;1.30;;;12.00;93.80;;;;;;6153943;28;20079;-78
2023/10/26 07:47:04;;;;;;;3.20;1.00;;;11.90;93.80;;;;;;6171522;28;20054;-78
2023/10/26 07:50:05;;;;;;;3.03;1.20;;;11.80;93.80;;;;;;6147853;28;20872;-77
2023/10/26 07:53:08;;;;;;;2.38;0.98;;;11.80;93.80;;;;;;6170844;28;20055;-78
2023/10/26 07:56:10;;;;;;;3.65;1.00;;;11.70;93.80;;;;;;6147733;28;20059;-77
2023/10/26 07:59:11;;;;;;;5.72;1.42;;;11.70;94.00;;;;;;6154512;28;20212;-76
2023/10/26 08:02:13;;;;;;;2.42;1.02;;;11.70;94.10;;;;;;6170031;28;20066;-80
2023/10/26 08:05:15;;;;;;;2.40;1.05;;;11.80;94.10;;;;;;6148191;28;20078;-83
2023/10/26 08:08:17;;;;;;;3.63;1.08;;;11.90;94.00;;;;;;6147875;28;20055;-77
2023/10/26 08:11:18;;;;;;;7.68;1.50;;;11.90;94.00;;;;;;6124440;28;20058;-76
2023/10/26 08:14:20;;;;;;;3.28;1.58;;;12.00;93.90;;;;;;6160626;28;20069;-79
2023/10/26 08:17:41;;;;;;;5.13;1.02;;;12.10;94.10;;;;;;6135635;28;20078;-76
2023/10/26 08:20:43;;;;;;;5.03;0.93;;;12.40;94.00;;;;;;6149582;28;20057;-83
2023/10/26 08:23:45;;;;;;;3.90;1.10;;;12.50;93.60;;;;;;6189927;28;20066;-89
2023/10/26 08:26:47;;;;;;;5.35;1.20;;;12.50;93.40;;;;;;6173628;28;20046;-83
2023/10/26 08:29:49;;;;;;;5.00;1.30;;;12.40;93.30;;;;;;6120593;29;20051;-76
2023/10/26 08:32:53;;;;;;;8.10;1.27;;;12.50;93.30;;;;;;6170962;28;20055;-78
2023/10/26 08:35:56;;;;;;;6.00;1.10;;;12.60;93.40;;;;;;6146787;28;20055;-78
2023/10/26 08:38:57;;;;;;;3.88;1.17;;;12.70;93.50;;;;;;6146938;28;20066;-79
2023/10/26 08:42:01;;;;;;;6.47;1.25;;;12.90;93.50;;;;;;6140633;28;20058;-76
2023/10/26 08:45:03;;;;;;;4.65;1.10;;;12.90;92.90;;;;;;6152191;28;20067;-78
2023/10/26 08:48:04;;;;;;;4.47;1.20;;;12.90;92.90;;;;;;6169256;28;20457;-76
2023/10/26 08:51:06;;;;;;;3.10;1.20;;;12.90;93.20;;;;;;6170149;28;20058;-76
2023/10/26 08:54:08;;;;;;;6.50;1.30;;;12.80;92.90;;;;;;6145991;28;20051;-77
2023/10/26 08:57:09;;;;;;;4.93;1.73;;;12.70;92.90;;;;;;6159820;28;20521;-76
2023/10/26 09:00:11;;;;;;;4.43;1.50;;;12.70;93.00;;;;;;6167823;28;20047;-81
2023/10/26 09:03:12;;;;;;;3.85;1.30;;;12.60;93.70;;;;;;6153283;28;20078;-81
2023/10/26 09:06:14;;;;;;;5.35;1.70;;;12.60;93.90;;;;;;6168998;28;20065;-77
2023/10/26 09:09:16;;;;;;;6.07;1.35;;;12.60;94.00;;;;;;6146526;28;20478;-78
2023/10/26 09:12:19;;;;;;;9.05;2.13;;;12.70;94.30;;;;;;6170060;28;20066;-85
2023/10/26 09:15:21;;;;;;;4.75;1.40;;;12.80;94.50;;;;;;6149415;28;20055;-87
2023/10/26 09:18:23;;;;;;;3.53;1.33;;;12.80;94.10;;;;;;6171175;28;20059;-86
2023/10/26 09:21:24;;;;;;;5.20;1.67;;;12.90;94.20;;;;;;6146535;28;20058;-76
2023/10/26 09:24:26;;;;;;;6.50;1.58;;;12.80;94.10;;;;;;6168725;28;20107;-77
2023/10/26 09:27:28;;;;;;;3.97;1.10;;;12.90;94.40;;;;;;6147740;28;20054;-87
2023/10/26 09:30:29;;;;;;;6.82;1.30;;;12.90;94.10;;;;;;6167592;28;20511;-81
2023/10/26 09:33:31;;;;;;;3.60;1.25;;;13.00;94.00;;;;;;6171594;28;20058;-83
2023/10/26 09:36:33;;;;;;;4.53;1.17;;;13.10;94.20;;;;;;6149650;28;20075;-86
2023/10/26 09:39:34;;;;;;;4.38;1.20;;;13.10;94.50;;;;;;6146864;28;20062;-78
2023/10/26 09:42:36;;;;;;;4.60;1.20;;;13.30;94.30;;;;;;6177082;28;20058;-81
2023/10/26 09:45:38;;;;;;;3.85;1.27;;;13.50;94.20;;;;;;6159159;28;20051;-85
2023/10/26 09:48:40;;;;;;;3.92;1.50;;;13.60;93.30;;;;;;6177157;28;20057;-89
2023/10/26 09:51:43;;;;;;;3.17;1.20;;;13.60;92.90;;;;;;6175452;28;20426;-82
2023/10/26 09:54:44;;;;;;;4.90;1.70;;;13.70;93.10;;;;;;6131674;28;20055;-77
2023/10/26 09:57:46;;;;;;;5.18;1.40;;;13.70;91.90;;;;;;6148738;28;20062;-78
2023/10/26 10:00:48;;;;;;;6.45;1.20;;;13.80;92.20;;;;;;6172934;28;20047;-80
2023/10/26 10:03:49;;;;;;;5.68;1.45;;;14.10;90.90;;;;;;6157587;28;20434;-85
2023/10/26 10:06:51;;;;;;;5.38;1.25;;;14.20;91.50;;;;;;6175115;28;20058;-86
2023/10/26 10:09:53;;;;;;;7.65;1.92;;;14.30;89.60;;;;;;6174529;28;20058;-81
2023/10/26 10:12:55;;;;;;;4.80;1.13;;;14.50;90.90;;;;;;6149890;28;20429;-82
2023/10/26 10:15:57;;;;;;;6.18;1.38;;;14.50;87.00;;;;;;6174558;28;20051;-81
2023/10/26 10:18:59;;;;;;;5.47;1.20;;;14.60;86.70;;;;;;6124749;29;20583;-82
2023/10/26 10:22:01;;;;;;;9.95;1.85;;;15.40;85.50;;;;;;6141367;28;20058;-82
2023/10/26 10:25:04;;;;;;;9.95;2.05;;;15.40;77.90;;;;;;6126061;28;20063;-83
2023/10/26 10:28:06;;;;;;;7.30;1.92;;;15.30;82.10;;;;;;6153000;28;20053;-84
2023/10/26 10:31:10;;;;;;;10.27;2.10;;;15.10;80.50;;;;;;6174430;28;20051;-83
2023/10/26 10:34:11;;;;;;;5.22;1.83;;;14.80;80.80;;;;;;6134610;28;20047;-88
2023/10/26 10:37:13;;;;;;;13.65;2.30;;;14.70;84.50;;;;;;6174850;28;20529;-84
2023/10/26 10:40:15;;;;;;;9.18;2.03;;;14.60;82.80;;;;;;6175546;28;20062;-87
2023/10/26 10:43:17;;;;;;;10.07;2.00;;;14.60;86.00;;;;;;6133780;28;20050;-81
2023/10/26 10:46:19;;;;;;;8.32;2.00;;;14.70;85.00;;;;;;6153355;28;20518;-77
2023/10/26 10:49:21;;;;;;;7.93;2.17;;;14.60;80.80;;;;;;6165982;28;20055;-80
2023/10/26 10:52:23;;;;;;;13.32;2.45;;;14.70;82.00;;;;;;6148657;28;20058;-81
2023/10/26 10:55:24;;;;;;;13.55;2.75;;;14.70;81.30;;;;;;6141320;28;20047;-81
2023/10/26 10:58:26;;;;;;;10.52;2.10;;;14.90;80.10;;;;;;6162709;28;20055;-78
2023/10/26 11:01:29;;;;;;;9.18;2.22;;;15.50;74.50;;;;;;6148462;28;20051;-82
2023/10/26 11:04:31;;;;;;;14.13;2.22;;;15.60;76.80;;;;;;6172921;28;20064;-85
2023/10/26 11:07:37;;;;;;;7.47;2.13;;;15.40;76.10;;;;;;6128116;28;20043;-78
2023/10/26 11:10:39;;;;;;;7.95;2.00;;;15.90;81.70;;;;;;6149279;28;20054;-83
2023/10/26 11:13:41;;;;;;;11.73;2.70;;;16.80;75.50;;;;;;6143642;28;20059;-86
2023/10/26 11:16:43;;;;;;;11.13;2.35;;;17.30;54.00;;;;;;6171276;28;20050;-78
2023/10/26 11:19:45;;;;;;;11.75;2.58;;;18.20;64.90;;;;;;6164763;28;20066;-80
2023/10/26 11:22:46;;;;;;;7.35;2.15;;;18.70;37.80;;;;;;6174113;28;20121;-78
2023/10/26 11:25:48;;;;;;;10.27;2.70;;;19.50;37.60;;;;;;6133649;28;20047;-79
2023/10/26 11:28:49;;;;;;;9.65;2.03;;;19.90;15.60;;;;;;6164950;28;20076;-88
2023/10/26 11:31:51;;;;;;;7.50;2.05;;;20.70;18.50;;;;;;6191404;28;20059;-86
2023/10/26 11:34:52;;;;;;;11.30;3.08;;;20.90;7.00;;;;;;6174290;28;20062;-84
2023/10/26 11:37:54;;;;;;;11.35;2.55;;;20.80;1.00;;;;;;6127598;28;20057;-82
2023/10/26 11:40:56;;;;;;;5.70;2.13;;;20.90;1.00;;;;;;6171225;28;20526;-75
2023/10/26 11:43:58;;;;;;;9.80;2.40;;;21.10;1.00;;;;;;6157506;28;20399;-79
2023/10/26 11:46:59;;;;;;;11.80;2.40;;;21.10;1.00;;;;;;6149692;28;20059;-79
2023/10/26 11:50:01;;;;;;;9.27;2.50;;;20.80;1.00;;;;;;6170497;28;20817;-76
2023/10/26 11:53:03;;;;;;;10.75;2.60;;;20.70;1.00;;;;;;6147796;28;20054;-78
2023/10/26 11:56:04;;;;;;;11.35;1.70;;;20.70;1.00;;;;;;6172211;28;20050;-77
2023/10/26 11:59:06;;;;;;;8.63;1.77;;;20.60;1.00;;;;;;6157892;28;20066;-77
2023/10/26 12:02:08;;;;;;;9.05;1.70;;;20.70;1.00;;;;;;6123951;28;20074;-77
2023/10/26 12:05:09;;;;;;;10.52;1.95;;;21.20;1.00;;;;;;6169443;28;20054;-83
2023/10/26 12:08:11;;;;;;;10.55;1.70;;;21.00;1.00;;;;;;6151945;28;20415;-83
2023/10/26 12:11:13;;;;;;;8.00;1.67;;;20.40;1.00;;;;;;6171129;28;20423;-80
2023/10/26 12:14:15;;;;;;;9.38;1.83;;;20.60;1.00;;;;;;6143777;28;20495;-82
2023/10/26 12:17:16;;;;;;;9.80;1.70;;;20.70;1.00;;;;;;6171011;28;20596;-88
2023/10/26 12:20:18;;;;;;;7.97;1.48;;;20.10;1.00;;;;;;6168295;28;20065;-80
2023/10/26 12:23:19;;;;;;;7.45;1.60;;;19.70;1.00;;;;;;6150992;28;20085;-78
2023/10/26 12:26:21;;;;;;;9.35;1.90;;;19.70;1.00;;;;;;6158305;28;20050;-79
2023/10/26 12:29:23;;;;;;;6.80;1.60;;;20.30;1.00;;;;;;6162497;28;20069;-83
2023/10/26 12:32:24;;;;;;;9.40;1.58;;;20.60;1.00;;;;;;6150232;28;20055;-81
2023/10/26 12:35:26;;;;;;;6.88;1.52;;;20.40;1.00;;;;;;6169307;28;20058;-78
2023/10/26 12:38:27;;;;;;;6.53;1.60;;;19.70;1.00;;;;;;6148819;28;20059;-89
2023/10/26 12:41:29;;;;;;;10.60;1.55;;;19.00;1.00;;;;;;6172600;28;20490;-89
2023/10/26 12:44:31;;;;;;;8.68;1.60;;;18.40;1.00;;;;;;6152744;28;20085;-90
2023/10/26 12:47:32;;;;;;;8.82;1.67;;;17.90;1.00;;;;;;6153079;28;20055;-89
2023/10/26 12:50:34;;;;;;;10.43;1.63;;;17.50;1.00;;;;;;6169673;28;20418;-82
2023/10/26 12:53:36;;;;;;;8.50;1.40;;;17.30;1.00;;;;;;6171000;28;20057;-90
2023/10/26 12:56:37;;;;;;;10.50;1.70;;;17.40;1.00;;;;;;6123772;29;20106;-84
2023/10/26 12:59:39;;;;;;;10.90;1.55;;;17.70;1.00;;;;;;6154365;28;20419;-76
2023/10/26 13:02:41;;;;;;;7.70;1.75;;;17.80;1.00;;;;;;6169781;28;20059;-76
2023/10/26 13:05:42;;;;;;;9.75;1.70;;;17.60;1.00;;;;;;6166893;28;20046;-76
2023/10/26 13:08:44;;;;;;;6.82;1.55;;;17.80;1.00;;;;;;6147227;28;20062;-76
2023/10/26 13:11:45;;;;;;;7.10;1.52;;;18.10;1.00;;;;;;6168344;28;20057;-76
2023/10/26 13:14:47;;;;;;;10.30;1.98;;;18.00;1.00;;;;;;6146397;28;20055;-76
2023/10/26 13:17:57;;;;;;;7.75;1.60;;;17.60;1.00;;;;;;6151569;28;20175;-76
2023/10/26 13:20:58;;;;;;;13.20;2.38;;;17.30;1.00;;;;;;6172887;28;20058;-76
2023/10/26 13:24:00;;;;;;;11.82;2.15;;;17.20;1.00;;;;;;6151550;28;20419;-75
2023/10/26 13:27:02;;;;;;;12.30;1.73;;;17.00;1.00;;;;;;6155568;28;20055;-76
2023/10/26 13:30:03;;;;;;;12.15;1.90;;;16.90;1.00;;;;;;6168545;28;20276;-80
2023/10/26 13:33:05;;;;;;;12.50;1.80;;;16.90;1.00;;;;;;6150884;28;20062;-86
2023/10/26 13:36:09;;;;;;;6.95;1.55;;;17.30;1.00;;;;;;6173440;28;20058;-78
2023/10/26 13:39:11;;;;;;;12.02;2.25;;;17.60;1.00;;;;;;6150823;28;20073;-78
2023/10/26 13:42:13;;;;;;;11.48;1.65;;;17.60;1.00;;;;;;6173744;28;20758;-78
2023/10/26 13:45:15;;;;;;;10.45;1.45;;;17.60;1.00;;;;;;6160231;28;20085;-82
2023/10/26 13:48:16;;;;;;;9.50;1.70;;;17.40;1.00;;;;;;6149920;28;20152;-80
2023/10/26 13:51:18;;;;;;;9.35;1.70;;;17.40;1.00;;;;;;6172804;28;20054;-80
2023/10/26 13:54:21;;;;;;;8.25;1.60;;;17.50;1.00;;;;;;6150229;28;20055;-80
2023/10/26 13:57:23;;;;;;;8.27;1.35;;;17.60;1.00;;;;;;6174675;28;20050;-79
2023/10/26 14:00:25;;;;;;;9.95;1.77;;;17.90;1.00;;;;;;6148418;28;20057;-79
2023/10/26 14:03:27;;;;;;;8.10;1.38;;;17.70;1.00;;;;;;6172060;28;20062;-76
2023/10/26 14:06:29;;;;;;;10.82;2.03;;;17.50;1.00;;;;;;6150329;28;20055;-80
2023/10/26 14:09:31;;;;;;;12.35;2.25;;;17.60;1.00;;;;;;6172096;28;20062;-80
2023/10/26 14:12:33;;;;;;;6.03;1.90;;;17.80;1.00;;;;;;6150290;28;20157;-82
2023/10/26 14:15:35;;;;;;;9.45;1.80;;;18.20;1.00;;;;;;6171137;28;20050;-82
2023/10/26 14:18:36;;;;;;;9.75;1.77;;;18.20;1.00;;;;;;6150096;28;20138;-83
2023/10/26 14:21:38;;;;;;;7.03;1.60;;;18.60;1.00;;;;;;6176089;28;20047;-90
2023/10/26 14:24:41;;;;;;;11.27;1.67;;;18.60;1.00;;;;;;6173996;28;20063;-80
2023/10/26 14:27:44;;;;;;;6.95;1.45;;;18.70;1.00;;;;;;6144746;28;20055;-79
2023/10/26 14:30:45;;;;;;;6.22;1.38;;;19.00;1.00;;;;;;6171931;28;20173;-78
2023/10/26 14:33:47;;;;;;;9.18;1.67;;;19.30;1.00;;;;;;6124351;29;20055;-80
2023/10/26 14:36:49;;;;;;;6.63;1.70;;;19.40;1.00;;;;;;6126977;29;20059;-87
2023/10/26 14:39:50;;;;;;;9.48;1.80;;;19.50;1.00;;;;;;6159276;28;20144;-89
2023/10/26 14:42:52;;;;;;;9.23;1.40;;;19.40;1.00;;;;;;6177650;28;20059;-88
2023/10/26 14:45:54;;;;;;;7.25;1.77;;;18.90;1.00;;;;;;6156808;28;20141;-76
2023/10/26 14:48:55;;;;;;;11.32;2.13;;;18.40;1.00;;;;;;6172200;28;20642;-76
2023/10/26 14:51:57;;;;;;;10.73;2.90;;;17.80;1.00;;;;;;6150104;28;20166;-80
2023/10/26 14:55:01;;;;;;;10.30;1.88;;;17.30;1.00;;;;;;6165320;28;20062;-83
2023/10/26 14:58:02;;;;;;;11.25;1.80;;;17.00;1.00;;;;;;6182655;28;20051;-75
2023/10/26 15:01:04;;;;;;;12.27;2.20;;;17.10;1.00;;;;;;6148395;28;20058;-75
2023/10/26 15:04:07;;;;;;;10.38;1.52;;;17.10;1.00;;;;;;6171600;28;20430;-75
2023/10/26 15:07:09;;;;;;;7.90;2.35;;;17.00;1.00;;;;;;6148555;28;20059;-75
2023/10/26 15:10:11;;;;;;;7.40;1.38;;;16.90;1.00;;;;;;6171959;28;20189;-75
2023/10/26 15:13:27;;;;;;;9.98;1.65;;;16.80;1.00;;;;;;6134471;28;20529;-87
2023/10/26 15:16:30;;;;;;;7.20;1.38;;;16.60;1.00;;;;;;6173575;28;20054;-77
2023/10/26 15:19:32;;;;;;;12.88;1.70;;;16.40;1.00;;;;;;6172125;28;20066;-74
2023/10/26 15:22:33;;;;;;;17.90;2.50;;;16.30;1.00;;;;;;6171946;28;20058;-75
2023/10/26 15:25:36;;;;;;;15.57;1.65;;;16.10;1.00;;;;;;6164470;28;20054;-75
2023/10/26 15:28:37;;;;;;;12.35;2.15;;;16.10;1.40;;;;;;6155933;28;20055;-75
2023/10/26 15:31:39;;;;;;;10.32;1.85;;;15.90;1.20;;;;;;6171322;28;20061;-82
2023/10/26 15:34:41;;;;;;;10.07;2.00;;;15.80;1.00;;;;;;6126269;29;20416;-85
2023/10/26 15:37:43;;;;;;;9.93;1.92;;;15.70;1.00;;;;;;6156802;28;20067;-77
2023/10/26 15:40:44;;;;;;;7.85;1.45;;;15.60;1.00;;;;;;6156474;28;20153;-83
2023/10/26 15:43:46;;;;;;;5.53;1.25;;;15.50;1.00;;;;;;6134140;28;20058;-75
2023/10/26 15:46:47;;;;;;;6.95;1.33;;;15.30;1.00;;;;;;6170532;28;20426;-75
2023/10/26 15:49:49;;;;;;;10.20;1.98;;;15.20;1.00;;;;;;6148181;28;20578;-75